Time;durP1;ratioP1;P1;durP2;ratioP2;P2;SDS_P1;SDS_P2;PMS_P1;PMS_P2;Temp;Humidity;BMP_temperature;BMP_pressure;BME280_temperature;BME280_humidity;BME280_pressure;Samples;Min_cycle;Max_cycle;Signal;HPM_P1;HPM_P2
2021/05/21 00:02:41;;;;;;;14.15;2.75;;;;;;;14.63;69.38;100596.06;10254860;28;20471;-78
2021/05/21 00:07:41;;;;;;;20.60;3.75;;;;;;;13.94;79.13;100617.03;10251228;28;20430;-78
2021/05/21 00:12:42;;;;;;;25.45;4.50;;;;;;;13.41;85.15;100601.44;10271564;28;20100;-77
2021/05/21 00:17:43;;;;;;;31.52;4.68;;;;;;;12.68;87.00;100556.19;10303541;28;20045;-78
2021/05/21 00:22:44;;;;;;;23.02;4.00;;;;;;;12.44;86.87;100589.34;10267202;28;20044;-78
2021/05/21 00:27:44;;;;;;;16.58;3.50;;;;;;;12.43;84.20;100593.22;10283949;28;20035;-78
2021/05/21 00:32:45;;;;;;;23.48;3.88;;;;;;;11.93;84.53;100527.84;10266314;28;20034;-78
2021/05/21 00:37:45;;;;;;;31.23;5.13;;;;;;;11.85;86.50;100549.44;10265128;28;20039;-77
2021/05/21 00:42:46;;;;;;;24.33;3.72;;;;;;;12.09;85.14;100585.25;10286378;28;20041;-78
2021/05/21 00:47:47;;;;;;;20.58;4.47;;;;;;;12.09;83.83;100571.69;10260126;28;20037;-77
2021/05/21 00:52:47;;;;;;;23.63;5.68;;;;;;;12.16;83.14;100574.47;10252739;28;20027;-77
2021/05/21 00:57:48;;;;;;;27.58;4.20;;;;;;;12.14;85.32;100555.09;10267671;28;20047;-77
2021/05/21 01:02:51;;;;;;;26.00;4.03;;;;;;;11.75;88.43;100528.44;10299637;28;20126;-78
2021/05/21 01:07:52;;;;;;;22.70;4.88;;;;;;;11.65;91.48;100485.81;10283983;28;20042;-77
2021/05/21 01:12:52;;;;;;;23.13;4.07;;;;;;;11.52;93.45;100473.72;10281219;28;20119;-78
2021/05/21 01:17:53;;;;;;;22.33;3.80;;;;;;;11.46;93.57;100488.75;10282111;28;20041;-78
2021/05/21 01:22:53;;;;;;;26.08;4.40;;;;;;;11.72;95.07;100518.34;10282776;28;20039;-77
2021/05/21 01:27:54;;;;;;;28.65;4.70;;;;;;;11.50;95.89;100463.28;10281267;28;20042;-77
2021/05/21 01:32:55;;;;;;;18.85;4.50;;;;;;;11.50;95.15;100435.41;10296599;28;20035;-77
2021/05/21 01:37:56;;;;;;;33.78;4.90;;;;;;;11.81;96.00;100486.31;10295403;28;20444;-77
2021/05/21 01:42:57;;;;;;;20.85;3.42;;;;;;;11.95;95.21;100493.03;10281638;28;20113;-77
2021/05/21 01:47:58;;;;;;;28.67;5.18;;;;;;;12.01;95.25;100483.38;10267020;28;20038;-77
2021/05/21 01:52:58;;;;;;;27.42;5.13;;;;;;;11.60;95.21;100423.91;10278280;28;20031;-77
2021/05/21 01:57:59;;;;;;;26.75;5.97;;;;;;;11.99;94.94;100477.56;10281144;28;20046;-77
2021/05/21 02:02:59;;;;;;;23.23;5.00;;;;;;;11.61;94.13;100406.50;10270073;28;20055;-77
2021/05/21 02:08:00;;;;;;;26.30;4.13;;;;;;;11.82;93.32;100468.91;10267833;28;20064;-78
2021/05/21 02:13:00;;;;;;;25.65;4.90;;;;;;;11.90;93.53;100458.16;10264115;28;20097;-77
2021/05/21 02:18:01;;;;;;;24.73;4.65;;;;;;;11.90;93.46;100458.16;10282633;28;20035;-77
2021/05/21 02:23:04;;;;;;;24.83;4.30;;;;;;;11.73;93.97;100438.66;10271340;28;20043;-78
2021/05/21 02:28:04;;;;;;;21.58;4.18;;;;;;;11.77;94.13;100444.91;10300888;28;20062;-77
2021/05/21 02:33:05;;;;;;;28.42;4.90;;;;;;;11.76;95.20;100454.19;10281784;28;20093;-77
2021/05/21 02:38:05;;;;;;;25.88;4.13;;;;;;;11.80;96.01;100444.13;10288634;28;20071;-78
2021/05/21 02:43:06;;;;;;;29.25;4.28;;;;;;;11.47;96.64;100392.84;10287562;28;20118;-79
2021/05/21 02:48:06;;;;;;;23.88;3.83;;;;;;;11.68;96.47;100436.31;10287207;28;20091;-80
2021/05/21 02:53:07;;;;;;;27.17;5.13;;;;;;;11.68;95.42;100425.50;10301705;28;20042;-80
2021/05/21 02:58:10;;;;;;;24.20;4.45;;;;;;;11.76;93.90;100410.84;10244473;28;20045;-79
2021/05/21 03:03:10;;;;;;;22.50;4.68;;;;;;;11.42;93.61;100359.56;10249811;28;20062;-79
2021/05/21 03:08:12;;;;;;;23.00;3.97;;;;;;;11.82;90.69;100436.41;10253079;28;20055;-79
2021/05/21 03:13:12;;;;;;;17.98;4.30;;;;;;;11.98;88.55;100416.44;10265729;28;20134;-79
2021/05/21 03:18:13;;;;;;;32.20;4.82;;;;;;;12.11;89.38;100398.69;10263171;28;20472;-79
2021/05/21 03:23:14;;;;;;;24.38;4.90;;;;;;;11.84;90.89;100374.53;10261879;28;20062;-79
2021/05/21 03:28:15;;;;;;;26.98;4.00;;;;;;;11.75;91.11;100365.97;10285337;28;20093;-78
2021/05/21 03:33:15;;;;;;;25.17;4.72;;;;;;;11.88;91.70;100384.66;10270383;28;20138;-79
2021/05/21 03:38:16;;;;;;;20.30;4.25;;;;;;;11.85;90.34;100367.97;10292254;28;20093;-78
2021/05/21 03:43:16;;;;;;;18.50;3.65;;;;;;;11.40;89.92;100313.16;10292904;28;20035;-78
2021/05/21 03:48:17;;;;;;;23.13;3.25;;;;;;;11.65;88.72;100366.69;10275904;28;20491;-78
2021/05/21 03:53:17;;;;;;;21.15;4.45;;;;;;;11.42;86.82;100321.69;10312927;28;20050;-77
2021/05/21 03:58:18;;;;;;;20.35;3.80;;;;;;;11.68;86.29;100365.91;10291575;28;20466;-78
2021/05/21 04:03:18;;;;;;;22.33;3.65;;;;;;;11.53;85.99;100342.66;10277073;28;20125;-78
2021/05/21 04:08:19;;;;;;;22.85;4.25;;;;;;;11.70;84.76;100355.50;10262665;28;20059;-78
2021/05/21 04:13:19;;;;;;;16.88;4.05;;;;;;;11.39;83.87;100322.44;10273475;28;20373;-77
2021/05/21 04:18:20;;;;;;;21.67;4.13;;;;;;;11.49;82.64;100320.94;10276367;28;20054;-78
2021/05/21 04:23:20;;;;;;;24.42;4.15;;;;;;;11.69;82.78;100356.66;10291416;28;20042;-78
2021/05/21 04:28:21;;;;;;;23.15;3.30;;;;;;;11.72;79.92;100350.47;10264021;28;20039;-79
2021/05/21 04:33:21;;;;;;;31.85;5.53;;;;;;;11.73;78.81;100335.78;10257704;28;20039;-79
2021/05/21 04:38:22;;;;;;;33.17;4.53;;;;;;;11.68;78.59;100322.59;10272199;28;20050;-80
2021/05/21 04:43:26;;;;;;;27.40;4.10;;;;;;;11.65;78.87;100320.66;10301228;28;20023;-80
2021/05/21 04:48:27;;;;;;;24.95;4.95;;;;;;;11.76;77.64;100345.88;10271605;28;20035;-80
2021/05/21 04:53:30;;;;;;;24.58;4.03;;;;;;;11.67;77.97;100315.66;10259293;28;20105;-78
2021/05/21 04:58:30;;;;;;;23.10;3.70;;;;;;;11.58;78.03;100301.69;10267685;28;20115;-78
2021/05/21 05:03:33;;;;;;;18.92;4.55;;;;;;;11.79;76.20;100318.03;10283264;28;20042;-78
2021/05/21 05:08:33;;;;;;;18.73;3.15;;;;;;;11.55;74.74;100251.78;10266186;28;20531;-80
2021/05/21 05:13:36;;;;;;;26.08;4.50;;;;;;;11.97;74.56;100284.84;10246286;28;20051;-80
2021/05/21 05:18:37;;;;;;;;;;;;;;;12.19;73.37;100275.63;10280087;28;20495;-78
2021/05/21 05:23:37;;;;;;;18.40;4.18;;;;;;;12.07;73.65;100235.34;10284728;28;19929;-78
2021/05/21 05:28:41;;;;;;;21.38;4.55;;;;;;;12.26;72.65;100264.81;10278049;28;20160;-79
2021/05/21 05:33:42;;;;;;;17.52;3.78;;;;;;;11.96;72.67;100239.97;10260179;28;20125;-79
2021/05/21 05:38:42;;;;;;;20.77;4.15;;;;;;;12.45;71.62;100281.88;10252041;28;20429;-80
2021/05/21 05:43:49;;;;;;;20.20;3.60;;;;;;;12.57;70.84;100278.78;10260488;28;20391;-79
2021/05/21 05:48:50;;;;;;;20.75;3.47;;;;;;;12.68;70.06;100267.97;10299845;28;20093;-77
2021/05/21 05:53:51;;;;;;;24.05;4.10;;;;;;;12.64;70.32;100267.94;10297396;28;20038;-78
2021/05/21 05:58:51;;;;;;;27.27;4.22;;;;;;;12.26;77.42;100308.16;10283427;28;20042;-78
2021/05/21 06:03:52;;;;;;;23.52;3.25;;;;;;;11.74;82.55;100272.38;10302942;28;20038;-77
2021/05/21 06:08:52;;;;;;;18.83;4.25;;;;;;;11.66;86.20;100287.00;10278067;28;20047;-80
2021/05/21 06:13:53;;;;;;;28.33;4.30;;;;;;;11.83;87.13;100280.91;10279627;28;20050;-78
2021/05/21 06:18:53;;;;;;;20.83;4.65;;;;;;;12.07;82.25;100281.41;10264971;28;20483;-79
2021/05/21 06:23:54;;;;;;;27.30;4.80;;;;;;;12.32;79.07;100267.13;10294013;28;20039;-77
2021/05/21 06:28:54;;;;;;;28.98;4.57;;;;;;;12.42;77.45;100282.66;10278764;28;20035;-78
2021/05/21 06:33:57;;;;;;;11.15;2.85;;;;;;;12.43;75.64;100257.09;10261434;28;20048;-80
2021/05/21 06:39:00;;;;;;;17.10;3.33;;;;;;;12.67;75.99;100261.75;10250368;28;20075;-80
2021/05/21 06:44:01;;;;;;;18.73;2.80;;;;;;;12.57;75.11;100240.84;10275416;28;20091;-77
2021/05/21 06:49:02;;;;;;;17.25;2.95;;;;;;;12.62;76.10;100254.00;10282694;28;20034;-78
2021/05/21 06:54:03;;;;;;;28.60;3.42;;;;;;;12.34;76.16;100199.78;10288703;28;20046;-78
2021/05/21 06:59:04;;;;;;;17.05;3.33;;;;;;;12.93;74.71;100259.78;10272618;28;20032;-82
2021/05/21 07:04:04;;;;;;;22.48;3.83;;;;;;;12.87;74.61;100269.50;10277848;28;20043;-80
2021/05/21 07:09:07;;;;;;;23.15;4.70;;;;;;;12.98;73.69;100254.00;10260352;28;20047;-80
2021/05/21 07:14:11;;;;;;;16.50;3.30;;;;;;;12.78;76.65;100263.69;10259893;28;20043;-80
2021/05/21 07:19:18;;;;;;;16.88;3.45;;;;;;;12.43;79.77;100262.50;10276974;28;20042;-78
2021/05/21 07:24:45;;;;;;;15.35;3.17;;;;;;;11.81;80.07;100174.91;10254457;28;20137;-78
2021/05/21 07:30:47;;;;;;;;;;;;;;;;;;;;;
2021/05/21 07:36:11;;;;;;;17.85;3.90;;;;;;;11.61;75.33;100089.75;10268042;28;20050;-76
2021/05/21 07:41:16;;;;;;;22.35;4.25;;;;;;;12.82;75.99;100288.88;10264283;28;20050;-80
2021/05/21 07:46:16;;;;;;;13.25;3.15;;;;;;;12.65;74.68;100261.38;10239941;28;20043;-79
2021/05/21 07:51:18;;;;;;;18.45;3.22;;;;;;;12.56;75.68;100255.56;10271669;28;20109;-80
2021/05/21 07:56:18;;;;;;;12.50;2.78;;;;;;;12.55;76.16;100283.81;10286747;28;20181;-79
2021/05/21 08:01:19;;;;;;;16.33;3.28;;;;;;;12.85;75.26;100255.56;10261468;28;20156;-80
2021/05/21 08:06:22;;;;;;;15.70;3.08;;;;;;;12.92;75.94;100260.97;10279458;28;20348;-81
2021/05/21 08:11:23;;;;;;;17.08;3.72;;;;;;;12.94;78.96;100245.09;10235207;28;20042;-79
2021/05/21 08:16:23;;;;;;;19.10;4.03;;;;;;;13.20;79.51;100215.97;10287490;28;20065;-77
2021/05/21 08:21:25;;;;;;;22.42;4.75;;;;;;;12.73;81.10;100253.25;10258602;28;20035;-75
2021/05/21 08:26:26;;;;;;;26.88;3.97;;;;;;;12.42;86.17;100255.56;10278670;28;20058;-77
2021/05/21 08:31:26;;;;;;;21.83;4.18;;;;;;;12.03;91.81;100256.25;10270297;28;20459;-77
2021/05/21 08:36:27;;;;;;;21.88;4.75;;;;;;;12.02;92.23;100249.28;10299776;28;20137;-77
2021/05/21 08:41:29;;;;;;;21.48;4.55;;;;;;;11.90;89.32;100241.47;10292938;28;20031;-77
2021/05/21 08:46:32;;;;;;;18.83;3.67;;;;;;;14.16;78.09;100214.78;10295297;28;20070;-79
2021/05/21 08:51:34;;;;;;;20.27;3.42;;;;;;;15.80;69.73;100238.88;10260374;28;20254;-79
2021/05/21 08:56:38;;;;;;;20.98;4.45;;;;;;;15.90;65.61;100232.53;10260254;28;20404;-78
2021/05/21 09:01:56;;;;;;;16.45;3.40;;;;;;;15.73;63.62;100200.84;10279409;28;20038;-77
2021/05/21 09:06:57;;;;;;;19.60;4.97;;;;;;;16.35;63.66;100229.56;10278136;28;20047;-77
2021/05/21 09:11:57;;;;;;;12.32;3.55;;;;;;;16.35;60.88;100235.00;10250972;28;20047;-78
2021/05/21 09:17:00;;;;;;;18.45;4.53;;;;;;;15.29;61.64;100248.81;10280012;28;20463;-79
2021/05/21 09:22:08;;;;;;;18.10;4.43;;;;;;;14.44;65.49;100207.56;10295783;28;20035;-78
2021/05/21 09:27:11;;;;;;;20.38;3.53;;;;;;;14.19;66.49;100181.34;10246968;28;20193;-78
2021/05/21 09:32:29;;;;;;;33.95;4.97;;;;;;;14.18;69.27;100217.88;10271577;28;20042;-81
2021/05/21 09:37:48;;;;;;;16.45;3.45;;;;;;;13.35;69.35;100157.78;10265363;28;20154;-79
2021/05/21 09:42:53;;;;;;;15.95;3.88;;;;;;;13.61;71.09;100239.91;10273777;28;20045;-78
2021/05/21 09:48:00;;;;;;;18.73;3.70;;;;;;;13.67;70.59;100224.75;10289962;28;20468;-76
2021/05/21 09:53:04;;;;;;;18.83;4.60;;;;;;;13.52;75.15;100243.81;10278210;28;20051;-79
2021/05/21 09:58:05;;;;;;;20.40;3.40;;;;;;;13.45;74.99;100222.13;10272918;28;20472;-78
2021/05/21 10:03:06;;;;;;;15.48;3.60;;;;;;;14.23;71.21;100225.59;10289404;28;20061;-82
2021/05/21 10:08:06;;;;;;;17.20;3.67;;;;;;;14.34;71.28;100231.72;10267508;28;20141;-81
2021/05/21 10:13:07;;;;;;;10.20;2.25;;;;;;;13.78;69.60;100260.78;10248037;28;20047;-81
2021/05/21 10:18:13;;;;;;;17.05;2.85;;;;;;;13.23;73.80;100247.75;10235755;28;20058;-81
2021/05/21 10:23:18;;;;;;;16.70;4.03;;;;;;;12.78;83.38;100271.84;10268110;28;20460;-80
2021/05/21 10:28:22;;;;;;;15.02;3.05;;;;;;;12.34;91.55;100237.72;10264069;28;20121;-81
2021/05/21 10:33:31;;;;;;;14.65;3.50;;;;;;;12.84;89.70;100281.13;10276990;28;20035;-79
2021/05/21 10:38:32;;;;;;;18.83;3.40;;;;;;;13.80;86.77;100247.56;10267440;28;20105;-79
2021/05/21 10:43:32;;;;;;;20.70;3.60;;;;;;;14.16;78.24;100231.09;10264021;28;20133;-80
2021/05/21 10:48:33;;;;;;;16.35;3.60;;;;;;;14.83;77.15;100222.81;10275298;28;20538;-79
2021/05/21 10:53:40;;;;;;;12.85;3.08;;;;;;;15.46;71.02;100193.38;10266175;28;20031;-78
2021/05/21 10:58:44;;;;;;;11.57;3.22;;;;;;;15.82;67.58;100190.19;10268601;28;20049;-78
2021/05/21 11:04:08;;;;;;;14.80;4.05;;;;;;;16.32;63.30;100175.84;10273112;28;20391;-77
2021/05/21 11:09:13;;;;;;;19.95;3.00;;;;;;;16.42;61.51;100180.34;10268695;28;20101;-82
2021/05/21 11:14:33;;;;;;;17.98;4.15;;;;;;;15.77;62.40;100179.75;10243227;28;20531;-84
2021/05/21 11:19:34;;;;;;;16.73;3.60;;;;;;;14.90;62.82;100139.16;10286048;28;20035;-78
2021/05/21 11:24:37;;;;;;;15.95;2.60;;;;;;;14.54;65.84;100141.50;10253274;28;20088;-80
2021/05/21 11:29:43;;;;;;;17.60;3.53;;;;;;;14.30;68.59;100182.06;10261133;28;20035;-80
2021/05/21 11:34:44;;;;;;;16.27;3.45;;;;;;;14.38;69.16;100186.25;10274389;28;20491;-79
2021/05/21 11:39:45;;;;;;;22.48;4.63;;;;;;;14.26;71.79;100213.16;10289299;28;20397;-79
2021/05/21 11:44:47;;;;;;;17.85;3.28;;;;;;;13.90;68.47;100208.72;10255003;28;20043;-79
2021/05/21 11:49:48;;;;;;;10.45;2.92;;;;;;;13.58;71.85;100213.53;10260407;28;20038;-79
2021/05/21 11:54:52;;;;;;;14.93;3.40;;;;;;;13.36;74.36;100208.19;10277110;28;20463;-79
2021/05/21 11:59:56;;;;;;;17.40;3.70;;;;;;;13.49;74.75;100205.81;10270551;28;20126;-79
2021/05/21 12:05:07;;;;;;;19.25;3.30;;;;;;;13.64;71.07;100266.25;10293431;28;20138;-80
2021/05/21 12:10:07;;;;;;;17.30;3.05;;;;;;;13.60;72.83;100216.63;10282910;28;20053;-79
2021/05/21 12:15:09;;;;;;;14.57;3.30;;;;;;;13.58;73.63;100203.44;10282256;28;20057;-81
2021/05/21 12:20:11;;;;;;;15.17;3.47;;;;;;;13.75;73.40;100223.53;10278654;28;20038;-81
2021/05/21 12:25:18;;;;;;;15.45;3.42;;;;;;;14.19;72.08;100208.53;10280115;28;20043;-81
2021/05/21 12:30:19;;;;;;;14.70;3.03;;;;;;;14.82;70.23;100173.09;10262996;28;20046;-81
2021/05/21 12:35:35;;;;;;;17.17;3.92;;;;;;;15.72;66.28;100161.16;10262318;28;20099;-81
2021/05/21 12:40:53;;;;;;;14.63;3.00;;;;;;;16.08;61.80;100168.81;10282528;28;20274;-82
2021/05/21 12:45:53;;;;;;;12.02;2.90;;;;;;;16.59;60.63;100161.34;10279326;28;20538;-80
2021/05/21 12:50:54;;;;;;;12.98;2.42;;;;;;;16.84;60.05;100134.41;10284149;28;20235;-77
2021/05/21 12:55:54;;;;;;;11.40;2.88;;;;;;;17.11;56.35;100142.44;10293508;28;20907;-77
2021/05/21 13:00:54;;;;;;;14.98;2.92;;;;;;;17.02;54.87;100144.22;10273168;28;20093;-77
2021/05/21 13:05:55;;;;;;;15.52;3.10;;;;;;;17.19;54.11;100077.56;10238298;28;20156;-77
2021/05/21 13:11:02;;;;;;;15.32;3.90;;;;;;;16.99;50.24;100123.22;10275469;28;20039;-77
2021/05/21 13:16:03;;;;;;;10.07;2.22;;;;;;;16.92;46.97;100123.34;10294794;28;20117;-76
2021/05/21 13:21:06;;;;;;;14.65;3.10;;;;;;;16.80;47.16;100128.25;10296529;28;20031;-76
2021/05/21 13:26:06;;;;;;;11.55;2.88;;;;;;;16.90;45.79;100121.81;10266818;28;20483;-77
2021/05/21 13:31:07;;;;;;;9.95;2.33;;;;;;;16.38;46.62;100103.25;10261614;28;20045;-76
2021/05/21 13:36:08;;;;;;;15.95;2.30;;;;;;;16.53;50.17;100119.34;10267752;28;20511;-77
2021/05/21 13:41:08;;;;;;;16.73;2.78;;;;;;;16.78;50.55;100086.91;10271555;28;20034;-77
2021/05/21 13:46:09;;;;;;;15.05;2.72;;;;;;;16.92;49.27;100128.81;10280424;28;20058;-77
2021/05/21 13:51:09;;;;;;;16.35;2.85;;;;;;;16.72;49.27;100115.91;10275716;28;20027;-76
2021/05/21 13:56:10;;;;;;;12.55;2.33;;;;;;;17.15;48.35;100131.47;10279715;28;20038;-77
2021/05/21 14:01:11;;;;;;;26.75;4.03;;;;;;;16.97;48.70;100125.59;10261219;28;20666;-78
2021/05/21 14:06:12;;;;;;;14.15;2.25;;;;;;;17.23;47.50;100105.53;10276115;28;20077;-78
2021/05/21 14:11:12;;;;;;;10.88;1.90;;;;;;;17.27;45.91;100116.41;10279460;28;20218;-77
2021/05/21 14:16:13;;;;;;;11.38;1.80;;;;;;;17.22;44.46;100109.47;10279228;28;20054;-77
2021/05/21 14:21:14;;;;;;;11.95;2.30;;;;;;;17.00;44.45;100087.31;10257829;28;20530;-79
2021/05/21 14:26:15;;;;;;;12.02;2.83;;;;;;;16.59;46.23;100076.78;10270398;28;20038;-77
2021/05/21 14:31:15;;;;;;;15.45;2.80;;;;;;;16.83;46.52;100102.84;10277287;28;20049;-77
2021/05/21 14:36:16;;;;;;;21.15;2.67;;;;;;;16.83;46.08;100040.06;10276431;28;20636;-80
2021/05/21 14:41:16;;;;;;;13.80;2.42;;;;;;;16.67;46.25;100069.97;10274722;28;20057;-80
2021/05/21 14:46:17;;;;;;;17.80;2.50;;;;;;;16.43;45.45;100044.72;10282172;28;20042;-80
2021/05/21 14:51:17;;;;;;;10.30;2.53;;;;;;;17.01;45.82;100071.69;10262343;28;20058;-80
2021/05/21 14:56:18;;;;;;;19.63;2.42;;;;;;;16.81;45.00;100080.66;10272565;28;20038;-81
2021/05/21 15:01:18;;;;;;;18.92;2.28;;;;;;;17.00;43.49;100091.97;10244514;28;20045;-81
2021/05/21 15:06:21;;;;;;;16.65;2.20;;;;;;;16.98;42.81;100067.06;10244904;28;20066;-80
2021/05/21 15:11:23;;;;;;;18.30;2.33;;;;;;;16.74;41.30;100015.25;10273625;28;20043;-80
2021/05/21 15:22:06;;;;;;;18.65;2.60;;;;;;;16.97;42.52;100054.63;10270106;28;20102;-81
2021/05/21 15:27:06;;;;;;;18.83;2.53;;;;;;;16.53;45.26;100010.22;10252171;28;20046;-79
2021/05/21 15:32:07;;;;;;;32.00;3.45;;;;;;;16.46;46.61;100043.88;10242190;28;20058;-81
2021/05/21 15:37:09;;;;;;;30.95;3.25;;;;;;;16.18;49.12;100034.25;10260996;28;20110;-81
2021/05/21 15:47:10;;;;;;;15.00;2.38;;;;;;;16.30;46.73;99987.31;10264537;28;20035;-86
2021/05/21 15:52:23;;;;;;;33.95;2.75;;;;;;;16.11;45.55;99985.31;10295603;28;20117;-83
2021/05/21 15:57:35;;;;;;;29.08;3.03;;;;;;;16.44;45.61;100036.13;10252782;28;20389;-83
2021/05/21 16:02:35;;;;;;;18.23;2.65;;;;;;;16.58;43.51;100039.75;10261080;28;20492;-82
2021/05/21 16:07:36;;;;;;;20.33;3.13;;;;;;;16.55;44.50;100002.41;10273389;28;20059;-82
2021/05/21 16:12:36;;;;;;;28.25;2.47;;;;;;;16.85;42.65;100032.22;10253642;28;20054;-82
2021/05/21 16:17:37;;;;;;;27.27;2.30;;;;;;;16.84;42.74;100019.78;10255684;28;20116;-82
2021/05/21 16:22:37;;;;;;;30.63;2.30;;;;;;;16.62;41.14;100018.63;10233294;28;20407;-84
2021/05/21 16:27:38;;;;;;;31.77;2.58;;;;;;;16.43;41.17;100007.28;10256855;28;20059;-82
2021/05/21 16:32:39;;;;;;;26.10;2.55;;;;;;;16.41;41.42;99993.31;10256104;28;20031;-84
2021/05/21 16:37:41;;;;;;;26.10;2.15;;;;;;;15.95;40.73;99962.22;10269343;28;20082;-82
2021/05/21 16:42:41;;;;;;;21.40;2.40;;;;;;;16.18;41.51;100012.44;10281439;28;20361;-83
2021/05/21 16:47:42;;;;;;;29.60;2.58;;;;;;;16.23;40.78;99992.91;10262656;28;20088;-84
2021/05/21 16:52:50;;;;;;;23.08;2.70;;;;;;;16.29;42.38;100002.13;10290707;28;20054;-84
2021/05/21 16:57:51;;;;;;;31.25;3.25;;;;;;;15.87;42.04;99933.56;10277383;28;20042;-82
2021/05/21 17:02:51;;;;;;;29.38;2.85;;;;;;;16.16;40.46;100020.28;10294002;28;20034;-82
2021/05/21 17:07:52;;;;;;;25.70;4.32;;;;;;;16.11;41.11;99991.56;10236592;28;20391;-82
2021/05/21 17:12:55;;;;;;;23.55;3.33;;;;;;;15.83;40.97;99943.78;10283560;28;20051;-80
2021/05/21 18:53:54;;;;;;;27.60;3.92;;;;;;;14.00;50.53;99945.50;10262581;28;20046;-84
2021/05/21 19:04:20;;;;;;;14.98;2.00;;;;;;;13.79;51.05;99908.44;10265105;28;20039;-86
2021/05/21 19:19:46;;;;;;;25.65;3.75;;;;;;;13.59;53.32;99921.81;10245859;28;20077;-82
2021/05/21 19:24:47;;;;;;;18.90;3.05;;;;;;;13.22;54.14;99855.41;10270855;28;20404;-82
2021/05/21 19:29:57;;;;;;;21.50;2.70;;;;;;;13.52;54.99;99928.84;10259789;28;20115;-81
2021/05/21 19:40:31;;;;;;;12.55;2.50;;;;;;;13.40;57.51;99914.97;10240805;28;22046;-80
2021/05/21 20:16:52;;;;;;;17.77;2.97;;;;;;;12.95;58.92;99950.94;10289194;28;20058;-82
2021/05/21 20:21:54;;;;;;;17.98;3.72;;;;;;;12.99;59.65;99924.56;10280649;28;20031;-84
2021/05/21 20:27:11;;;;;;;12.40;2.50;;;;;;;12.90;60.54;99905.25;10284592;28;20122;-80
2021/05/21 21:14:31;;;;;;;21.35;4.30;;;;;;;12.43;62.12;99874.91;10266187;28;20062;-79
2021/05/21 21:19:47;;;;;;;16.40;2.55;;;;;;;12.10;62.24;99828.22;10231217;28;20054;-81
2021/05/21 21:30:02;;;;;;;17.27;2.83;;;;;;;12.26;62.31;99842.09;10289004;28;20035;-80
2021/05/21 21:35:35;;;;;;;13.98;2.95;;;;;;;12.09;63.62;99832.09;10261800;28;20043;-80
2021/05/21 22:02:28;;;;;;;16.98;2.70;;;;;;;11.99;64.33;99822.06;10291652;28;20046;-81
2021/05/21 22:07:27;;;;;;;16.70;2.65;;;;;;;11.97;64.95;99824.41;10269153;28;20510;-80
2021/05/21 22:23:10;;;;;;;19.75;3.35;;;;;;;11.75;67.29;99786.53;10295349;28;20086;-82
2021/05/21 22:28:13;;;;;;;15.43;2.92;;;;;;;11.85;65.54;99788.47;10262516;28;20052;-78
2021/05/21 22:33:13;;;;;;;20.23;2.95;;;;;;;12.26;65.84;99842.09;10288861;28;20030;-78
2021/05/21 22:38:14;;;;;;;22.08;2.85;;;;;;;12.31;65.81;99850.97;10274400;28;20456;-79
2021/05/21 22:43:15;;;;;;;14.98;2.58;;;;;;;12.14;66.23;99828.97;10284457;28;20037;-78
2021/05/21 22:48:15;;;;;;;19.67;2.92;;;;;;;12.30;66.16;99835.88;10268073;28;20041;-78
2021/05/21 22:53:16;;;;;;;17.23;2.45;;;;;;;12.06;65.22;99805.78;10263940;28;20488;-76
2021/05/21 22:58:16;;;;;;;17.02;2.58;;;;;;;12.31;65.30;99826.59;10273711;28;20043;-78
2021/05/21 23:03:18;;;;;;;19.42;3.03;;;;;;;12.27;65.91;99827.38;10233135;28;20043;-77
2021/05/21 23:08:19;;;;;;;14.85;2.72;;;;;;;12.31;66.00;99832.00;10271052;28;20432;-77
2021/05/21 23:13:19;;;;;;;18.75;2.78;;;;;;;12.22;65.92;99814.22;10258140;28;20051;-77
2021/05/21 23:18:20;;;;;;;14.52;2.42;;;;;;;12.33;66.29;99819.59;10243157;28;20054;-77
2021/05/21 23:23:20;;;;;;;18.90;2.80;;;;;;;12.32;66.58;99806.44;10244563;28;20467;-77
2021/05/21 23:28:21;;;;;;;16.85;2.80;;;;;;;12.27;67.28;99800.28;10258918;28;20039;-78
2021/05/21 23:33:22;;;;;;;16.55;2.80;;;;;;;12.20;67.57;99778.63;10260104;28;20058;-79
2021/05/21 23:38:22;;;;;;;15.65;2.65;;;;;;;11.97;67.69;99748.56;10232202;28;20412;-78
2021/05/21 23:43:23;;;;;;;18.67;2.15;;;;;;;12.31;66.69;99772.38;10258421;28;20122;-77
2021/05/21 23:48:23;;;;;;;7.28;1.77;;;;;;;12.32;66.94;99780.09;10232936;28;20407;-77
2021/05/21 23:53:26;;;;;;;10.68;1.60;;;;;;;12.02;68.58;99784.16;10265283;28;20784;-77
2021/05/21 23:58:27;;;;;;;12.38;2.00;;;;;;;11.93;69.26;99764.09;10240100;28;20035;-77
